Time;durP1;ratioP1;P1;durP2;ratioP2;P2;SDS_P1;SDS_P2;PMS_P1;PMS_P2;Temp;Humidity;BMP_temperature;BMP_pressure;BME280_temperature;BME280_humidity;BME280_pressure;Samples;Min_cycle;Max_cycle;Signal;HPM_P1;HPM_P2
2021/05/31 00:00:44;;;;;;;20.13;10.38;;;;;;;15.50;86.02;102302.88;13033579;22;20039;-79
2021/05/31 00:05:44;;;;;;;13.98;10.77;;;;;;;15.65;86.67;102332.00;13036634;22;20096;-79
2021/05/31 00:10:45;;;;;;;18.73;10.05;;;;;;;15.37;87.17;102309.59;13037996;22;20015;-79
2021/05/31 00:15:46;;;;;;;15.57;10.27;;;;;;;15.50;87.52;102334.78;13013395;22;20007;-79
2021/05/31 00:20:46;;;;;;;19.50;9.65;;;;;;;15.22;87.50;102292.16;13041110;22;20004;-80
2021/05/31 00:25:47;;;;;;;19.15;10.82;;;;;;;15.31;88.24;102327.34;13012926;22;20123;-79
2021/05/31 00:30:48;;;;;;;18.90;9.90;;;;;;;15.07;88.46;102293.75;13037000;22;20440;-80
2021/05/31 00:35:49;;;;;;;17.80;10.07;;;;;;;15.10;88.58;102312.13;13036968;22;20074;-79
2021/05/31 00:40:49;;;;;;;15.32;10.40;;;;;;;15.12;88.67;102320.75;13035269;22;20018;-79
2021/05/31 00:45:50;;;;;;;22.38;10.85;;;;;;;15.02;88.39;102326.72;13009859;22;20497;-79
2021/05/31 00:50:51;;;;;;;16.75;10.48;;;;;;;15.04;88.37;102318.97;13036138;22;20090;-80
2021/05/31 00:55:51;;;;;;;14.82;9.52;;;;;;;14.69;88.27;102265.25;13102863;22;20025;-79
2021/05/31 01:00:52;;;;;;;16.35;10.40;;;;;;;14.85;87.45;102305.31;13098739;22;20021;-80
2021/05/31 01:05:55;;;;;;;14.20;9.73;;;;;;;14.84;87.84;102325.50;13072479;22;20434;-79
2021/05/31 01:11:21;;;;;;;16.70;10.65;;;;;;;14.53;87.08;102273.44;13070166;22;20011;-79
2021/05/31 01:16:48;;;;;;;16.88;10.02;;;;;;;14.68;87.03;102307.25;13052098;22;20011;-79
2021/05/31 01:22:04;;;;;;;15.55;9.95;;;;;;;14.42;86.44;102287.91;13055023;22;20003;-79
2021/05/31 01:27:20;;;;;;;15.00;9.52;;;;;;;14.53;86.87;102313.44;13098064;22;20011;-80
2021/05/31 01:32:27;;;;;;;12.75;9.20;;;;;;;14.37;86.55;102302.56;13099717;22;20002;-79
2021/05/31 01:37:28;;;;;;;14.60;9.73;;;;;;;13.96;86.33;102229.22;13069406;22;20026;-79
2021/05/31 01:42:29;;;;;;;15.73;9.32;;;;;;;14.33;86.40;102307.88;13046677;22;20219;-79
2021/05/31 01:47:30;;;;;;;15.30;9.90;;;;;;;14.01;86.13;102270.88;13047810;22;20078;-79
2021/05/31 01:52:30;;;;;;;14.43;9.23;;;;;;;13.67;86.31;102227.66;13073055;22;20025;-79
2021/05/31 01:57:31;;;;;;;15.52;9.30;;;;;;;14.19;85.66;102307.50;13072759;22;20007;-79
2021/05/31 02:02:32;;;;;;;17.23;10.18;;;;;;;13.93;85.71;102289.72;13099446;22;20003;-79
2021/05/31 02:07:32;;;;;;;17.30;8.40;;;;;;;13.80;85.39;102263.72;13044353;22;20010;-80
2021/05/31 02:12:38;;;;;;;12.23;9.35;;;;;;;13.81;85.03;102270.75;13021224;22;20026;-79
2021/05/31 02:17:55;;;;;;;21.23;9.30;;;;;;;13.62;85.01;102251.59;13045703;22;20041;-79
2021/05/31 02:22:58;;;;;;;16.23;8.23;;;;;;;13.47;85.61;102240.28;13046642;22;20083;-79
2021/05/31 02:27:58;;;;;;;15.50;9.52;;;;;;;13.49;85.76;102258.97;13098994;22;20337;-79
2021/05/31 02:33:05;;;;;;;12.55;9.23;;;;;;;13.62;85.86;102284.19;13068954;22;20027;-80
2021/05/31 02:38:09;;;;;;;20.08;10.57;;;;;;;13.31;85.73;102236.72;13097198;22;20009;-79
2021/05/31 02:43:12;;;;;;;15.40;9.68;;;;;;;13.53;86.02;102293.25;13098480;22;20014;-79
2021/05/31 02:48:12;;;;;;;14.93;9.27;;;;;;;13.14;86.34;102242.41;13098517;22;20022;-79
2021/05/31 02:53:13;;;;;;;21.55;10.05;;;;;;;13.46;85.95;102314.78;13097961;22;20602;-79
2021/05/31 02:58:14;;;;;;;15.65;10.20;;;;;;;13.35;86.69;102297.38;13072708;22;20120;-79
2021/05/31 03:03:14;;;;;;;13.88;9.35;;;;;;;13.20;86.54;102279.06;13091330;22;20780;-79
2021/05/31 03:08:15;;;;;;;15.02;9.52;;;;;;;12.96;87.14;102253.50;13098708;22;20062;-79
2021/05/31 03:13:15;;;;;;;17.42;10.35;;;;;;;13.16;87.86;102283.56;13099120;22;20072;-80
2021/05/31 03:18:16;;;;;;;15.57;10.15;;;;;;;12.89;87.90;102242.44;13099125;22;20037;-79
2021/05/31 03:23:16;;;;;;;19.77;10.77;;;;;;;13.15;87.88;102292.88;13096869;22;20045;-79
2021/05/31 03:28:17;;;;;;;14.07;9.98;;;;;;;12.78;87.77;102242.09;13094427;22;20063;-79
2021/05/31 03:33:18;;;;;;;17.70;10.30;;;;;;;12.87;87.81;102266.41;13042869;22;20115;-79
2021/05/31 03:38:18;;;;;;;15.23;10.68;;;;;;;12.74;88.83;102256.69;13074607;22;20088;-80
2021/05/31 03:43:18;;;;;;;13.23;9.85;;;;;;;12.94;88.98;102293.78;13068877;22;20101;-80
2021/05/31 03:48:20;;;;;;;17.08;11.02;;;;;;;12.82;89.61;102285.63;13046492;22;20026;-80
2021/05/31 03:53:21;;;;;;;17.63;12.40;;;;;;;12.87;89.57;102298.97;13076329;22;20007;-80
2021/05/31 03:58:21;;;;;;;18.05;11.55;;;;;;;12.55;89.75;102249.88;13102187;22;20022;-80
2021/05/31 04:03:22;;;;;;;25.30;12.93;;;;;;;12.79;89.80;102280.88;13104757;22;20083;-80
2021/05/31 04:13:41;;;;;;;22.98;12.35;;;;;;;12.60;90.99;102260.50;13078119;22;20023;-80
2021/05/31 04:18:42;;;;;;;21.67;11.25;;;;;;;12.79;90.30;102297.16;13071489;22;20014;-80
2021/05/31 04:23:42;;;;;;;17.55;11.57;;;;;;;12.84;90.58;102296.91;13101160;22;20101;-80
2021/05/31 04:28:43;;;;;;;19.25;11.55;;;;;;;12.82;90.50;102291.06;13101279;22;20860;-80
2021/05/31 04:33:43;;;;;;;21.67;11.32;;;;;;;12.93;90.50;102291.38;13043148;22;20010;-80
2021/05/31 04:38:44;;;;;;;17.08;11.88;;;;;;;12.59;90.15;102245.38;13102155;22;20006;-79
2021/05/31 04:43:44;;;;;;;23.23;12.05;;;;;;;12.96;90.14;102286.09;13071672;22;20039;-79
2021/05/31 04:48:45;;;;;;;23.35;12.52;;;;;;;12.99;90.98;102301.69;13074513;22;20056;-80
2021/05/31 04:53:45;;;;;;;20.63;13.02;;;;;;;12.77;90.66;102250.56;13103418;22;20021;-80
2021/05/31 04:58:46;;;;;;;24.58;12.80;;;;;;;13.08;91.57;102305.06;13071096;22;20132;-79
2021/05/31 05:03:46;;;;;;;30.05;14.00;;;;;;;13.00;90.89;102292.41;13071950;22;20050;-80
2021/05/31 05:08:50;;;;;;;20.20;13.27;;;;;;;13.20;90.58;102300.78;13044837;22;20071;-80
2021/05/31 05:13:52;;;;;;;21.58;13.15;;;;;;;13.23;90.27;102289.22;13102421;22;20600;-80
2021/05/31 05:18:54;;;;;;;20.90;13.03;;;;;;;13.42;89.70;102297.59;13074704;22;20010;-79
2021/05/31 05:23:55;;;;;;;20.00;12.68;;;;;;;13.30;89.48;102262.31;13071105;22;20178;-79
2021/05/31 05:28:55;;;;;;;20.80;13.32;;;;;;;13.55;89.10;102295.66;13097105;22;20042;-80
2021/05/31 05:33:58;;;;;;;19.33;12.80;;;;;;;13.74;88.78;102297.75;13070283;22;20002;-79
2021/05/31 05:49:18;;;;;;;17.60;11.60;;;;;;;14.16;85.97;102286.47;13102829;22;20011;-79
2021/05/31 05:54:18;;;;;;;16.20;11.07;;;;;;;14.08;85.73;102252.03;13098152;22;20083;-79
2021/05/31 05:59:19;;;;;;;21.02;11.88;;;;;;;14.37;84.11;102278.84;13072569;22;20011;-79
2021/05/31 06:04:19;;;;;;;17.40;10.75;;;;;;;14.61;83.60;102285.28;13073632;22;19995;-79
2021/05/31 06:09:21;;;;;;;14.00;10.88;;;;;;;14.68;83.46;102285.47;13098986;22;20386;-79
2021/05/31 06:14:21;;;;;;;17.73;10.70;;;;;;;14.77;83.38;102275.19;13072061;22;20014;-79
2021/05/31 06:19:22;;;;;;;20.30;11.90;;;;;;;14.65;81.57;102231.75;13072519;22;20030;-80
2021/05/31 06:24:22;;;;;;;19.85;11.77;;;;;;;14.43;79.13;102180.66;13075266;22;20029;-80
2021/05/31 06:29:23;;;;;;;18.13;10.63;;;;;;;15.10;78.53;102268.56;13099147;22;20018;-79
2021/05/31 06:34:23;;;;;;;15.25;9.35;;;;;;;15.22;77.77;102265.69;13102328;22;20056;-80
2021/05/31 06:39:24;;;;;;;15.45;10.02;;;;;;;15.25;77.37;102244.34;13102090;22;20437;-80
2021/05/31 06:44:24;;;;;;;16.45;10.07;;;;;;;15.64;77.37;102286.03;13073252;22;20018;-80
2021/05/31 06:49:25;;;;;;;13.60;9.50;;;;;;;15.75;76.48;102275.38;13100616;22;20076;-80
2021/05/31 06:54:26;;;;;;;14.87;8.77;;;;;;;15.81;76.44;102257.56;13091421;22;20341;-80
2021/05/31 06:59:27;;;;;;;14.55;9.77;;;;;;;16.02;75.84;102257.97;13094155;22;20017;-80
2021/05/31 07:04:27;;;;;;;14.90;9.18;;;;;;;16.40;76.03;102261.75;13120835;22;20014;-80
2021/05/31 07:09:28;;;;;;;15.98;8.10;;;;;;;18.46;67.76;102266.72;13115134;22;20495;-80
2021/05/31 07:14:33;;;;;;;16.27;7.95;;;;;;;19.28;60.91;102222.59;13091090;22;20006;-79
2021/05/31 07:19:34;;;;;;;13.55;8.02;;;;;;;21.20;54.56;102263.53;13099552;22;20435;-79
2021/05/31 07:24:34;;;;;;;15.02;7.72;;;;;;;24.20;45.21;102237.00;13090663;22;20011;-80
2021/05/31 07:29:35;;;;;;;9.77;6.30;;;;;;;26.13;40.43;102254.50;13059779;22;20021;-80
2021/05/31 07:34:36;;;;;;;12.27;6.53;;;;;;;27.38;38.22;102251.16;13105423;22;20038;-81
2021/05/31 07:39:36;;;;;;;10.23;6.50;;;;;;;27.67;35.89;102239.16;13074806;22;20414;-80
2021/05/31 07:44:37;;;;;;;13.23;6.13;;;;;;;28.22;35.29;102242.56;13101365;22;20010;-81
2021/05/31 07:49:38;;;;;;;11.17;5.90;;;;;;;28.62;33.95;102205.84;13106805;22;19995;-82
2021/05/31 07:54:38;;;;;;;7.80;5.53;;;;;;;29.42;32.21;102237.88;13077411;22;20022;-80
2021/05/31 07:59:39;;;;;;;9.13;5.20;;;;;;;29.53;32.07;102225.53;13104223;22;20042;-80
2021/05/31 08:04:39;;;;;;;8.37;4.40;;;;;;;29.91;31.85;102234.34;13098665;22;20159;-83
2021/05/31 08:09:40;;;;;;;9.27;4.82;;;;;;;29.90;30.32;102207.69;13071365;22;20052;-80
2021/05/31 08:14:40;;;;;;;5.72;4.03;;;;;;;29.77;30.49;102223.75;13046819;22;20419;-80
2021/05/31 08:19:41;;;;;;;11.47;4.87;;;;;;;29.93;30.62;102220.69;13094409;22;20010;-79
2021/05/31 08:24:42;;;;;;;8.87;4.10;;;;;;;29.76;29.72;102176.84;13101961;22;20321;-83
2021/05/31 08:29:42;;;;;;;8.98;4.68;;;;;;;29.95;30.06;102223.03;13100044;22;20007;-82
2021/05/31 08:34:43;;;;;;;12.17;4.83;;;;;;;29.73;30.15;102173.00;13099862;22;20006;-78
2021/05/31 08:39:46;;;;;;;10.50;4.43;;;;;;;29.73;30.59;102223.16;13102173;22;20126;-80
2021/05/31 08:44:46;;;;;;;9.00;3.60;;;;;;;29.42;30.15;102226.72;13076980;22;20657;-79
2021/05/31 08:49:50;;;;;;;6.50;2.93;;;;;;;28.74;29.00;102206.19;13101857;22;20050;-82
2021/05/31 08:54:50;;;;;;;7.97;3.10;;;;;;;28.70;30.72;102208.34;13105022;22;20264;-77
2021/05/31 08:59:51;;;;;;;6.77;3.30;;;;;;;28.44;30.50;102172.28;13049871;22;20486;-78
2021/05/31 09:04:54;;;;;;;7.63;2.73;;;;;;;28.14;30.85;102138.38;13107689;22;20010;-80
2021/05/31 09:09:55;;;;;;;4.22;2.55;;;;;;;28.46;31.28;102164.31;13078690;22;20491;-78
2021/05/31 09:15:03;;;;;;;5.03;2.87;;;;;;;28.29;29.17;102154.56;13075374;22;20003;-77
2021/05/31 09:20:05;;;;;;;5.15;2.58;;;;;;;27.75;29.11;102146.03;13102000;22;20024;-80
2021/05/31 09:25:07;;;;;;;6.30;2.60;;;;;;;28.44;28.58;102194.53;13079799;22;20015;-80
2021/05/31 09:30:09;;;;;;;6.28;2.55;;;;;;;28.35;29.37;102169.44;13103420;22;20074;-79
2021/05/31 09:35:09;;;;;;;5.40;2.22;;;;;;;28.74;29.65;102178.38;13104242;22;20011;-83
2021/05/31 09:40:10;;;;;;;4.17;2.40;;;;;;;28.56;28.43;102132.53;13095185;22;20014;-80
2021/05/31 09:45:11;;;;;;;4.97;2.45;;;;;;;28.93;28.64;102129.97;13076868;22;20306;-77
2021/05/31 09:50:20;;;;;;;6.50;3.20;;;;;;;28.50;27.67;102106.53;13104697;22;20018;-77
2021/05/31 09:55:21;;;;;;;6.13;2.05;;;;;;;29.10;28.41;102160.38;13071584;22;20007;-83
2021/05/31 10:00:27;;;;;;;9.23;2.50;;;;;;;28.92;27.33;102122.81;13067835;22;20532;-76
2021/05/31 10:10:50;;;;;;;8.20;2.70;;;;;;;28.96;27.52;102129.03;13093339;22;20633;-82
2021/05/31 10:15:51;;;;;;;7.13;2.80;;;;;;;28.82;27.60;102137.94;13069926;22;20360;-74
2021/05/31 10:20:52;;;;;;;6.20;2.83;;;;;;;29.23;27.31;102113.69;13073675;22;20015;-84
2021/05/31 10:25:59;;;;;;;7.05;2.22;;;;;;;29.26;27.78;102137.84;13069478;22;20667;-87
2021/05/31 10:31:05;;;;;;;4.07;2.03;;;;;;;28.98;27.87;102112.66;13050035;22;20006;-81
2021/05/31 10:36:18;;;;;;;4.53;2.47;;;;;;;29.55;26.48;102117.19;13105198;22;20019;-80
2021/05/31 10:41:23;;;;;;;4.80;2.30;;;;;;;29.72;27.34;102132.41;13100516;22;20443;-81
2021/05/31 10:46:36;;;;;;;4.63;2.45;;;;;;;29.37;26.62;102124.25;13040874;22;20074;-84
2021/05/31 10:51:38;;;;;;;5.38;2.30;;;;;;;27.96;28.73;102082.63;13069697;22;20018;-78
2021/05/31 10:56:41;;;;;;;4.78;2.67;;;;;;;28.41;28.32;102078.63;13102617;22;20030;-82
2021/05/31 11:01:42;;;;;;;4.82;2.50;;;;;;;28.84;28.09;102071.47;13097037;22;20425;-83
2021/05/31 11:06:44;;;;;;;4.20;2.83;;;;;;;29.22;27.52;102106.59;13100686;22;20089;-81
2021/05/31 11:11:52;;;;;;;4.85;2.28;;;;;;;29.35;26.80;102104.47;13102637;22;20312;-83
2021/05/31 11:16:57;;;;;;;6.50;2.75;;;;;;;29.17;27.67;102093.28;13068727;22;20001;-81
2021/05/31 11:21:58;;;;;;;5.30;2.10;;;;;;;29.49;26.18;102064.88;13069970;22;20023;-80
2021/05/31 11:27:01;;;;;;;5.80;2.38;;;;;;;29.28;27.60;102071.34;13067639;22;20452;-79
2021/05/31 11:32:02;;;;;;;7.50;3.13;;;;;;;29.64;28.31;102075.41;13098097;22;20017;-80
2021/05/31 11:37:03;;;;;;;6.63;2.53;;;;;;;29.15;26.88;102056.75;13099158;22;20011;-80
2021/05/31 11:42:04;;;;;;;9.10;2.60;;;;;;;29.13;27.22;102070.38;13068583;22;20010;-79
2021/05/31 11:47:04;;;;;;;5.43;2.47;;;;;;;28.88;26.15;102056.19;13093993;22;20038;-81
2021/05/31 11:52:09;;;;;;;16.80;4.13;;;;;;;29.50;28.58;102060.84;13074073;22;20015;-81
2021/05/31 11:57:17;;;;;;;6.25;2.95;;;;;;;29.07;28.31;102006.94;13050800;22;20014;-79
2021/05/31 12:02:23;;;;;;;6.18;2.92;;;;;;;29.84;27.69;102044.31;13101439;22;20068;-77
2021/05/31 12:07:24;;;;;;;7.20;3.45;;;;;;;29.66;26.32;101997.72;13102803;22;20057;-82
2021/05/31 12:12:25;;;;;;;5.68;2.70;;;;;;;29.72;25.86;102026.50;13105539;22;20072;-79
2021/05/31 12:17:27;;;;;;;6.67;2.97;;;;;;;29.44;27.80;101995.84;13100575;22;20439;-80
2021/05/31 12:22:29;;;;;;;8.60;3.30;;;;;;;29.42;28.50;102031.75;13071822;22;20029;-79
2021/05/31 12:27:35;;;;;;;5.88;3.05;;;;;;;28.77;27.52;101933.41;13071642;22;20042;-80
2021/05/31 12:32:36;;;;;;;6.20;3.15;;;;;;;28.71;28.33;101990.09;13100433;22;20033;-80
2021/05/31 12:37:41;;;;;;;7.88;3.10;;;;;;;29.20;28.09;102014.38;13099038;22;20340;-83
2021/05/31 12:42:42;;;;;;;6.05;2.90;;;;;;;29.33;27.54;101989.97;13073117;22;20030;-82
2021/05/31 12:47:46;;;;;;;10.47;3.90;;;;;;;29.53;26.87;101985.94;13100981;22;20329;-81
2021/05/31 12:52:46;;;;;;;7.68;2.58;;;;;;;29.65;27.85;101971.06;13046972;22;20014;-82
2021/05/31 12:57:48;;;;;;;7.40;2.97;;;;;;;29.75;27.24;101969.88;13099472;22;20011;-83
2021/05/31 13:02:49;;;;;;;;;;;;;;;29.68;27.79;102000.81;13098847;22;20458;-82
2021/05/31 13:07:51;;;;;;;4.10;2.30;;;;;;;29.23;28.38;101947.41;13098602;22;20036;-79
2021/05/31 13:13:08;;;;;;;5.45;2.78;;;;;;;29.58;27.47;101976.97;13101676;22;20333;-81
2021/05/31 13:18:46;;;;;;;10.00;3.10;;;;;;;29.24;28.42;101976.03;13099385;22;20038;-78
2021/05/31 13:23:49;;;;;;;6.30;2.70;;;;;;;29.33;28.44;101962.13;13029932;22;20191;-80
2021/05/31 13:28:55;;;;;;;7.15;2.90;;;;;;;29.63;27.86;101934.53;13069122;22;20006;-83
2021/05/31 13:33:57;;;;;;;6.70;2.78;;;;;;;29.90;27.67;101942.88;13098538;22;20017;-82
2021/05/31 13:39:19;;;;;;;12.73;8.85;;;;;;;30.10;25.95;101911.72;13066169;22;20053;-80
2021/05/31 13:44:22;;;;;;;6.50;2.88;;;;;;;29.86;27.67;101942.28;13068209;22;20037;-82
2021/05/31 13:49:23;;;;;;;4.63;2.60;;;;;;;29.98;26.30;101911.91;13048443;22;20413;-80
2021/05/31 13:54:24;;;;;;;5.75;2.83;;;;;;;29.53;27.74;101941.38;13095898;22;20749;-76
2021/05/31 13:59:25;;;;;;;5.07;2.75;;;;;;;29.97;26.21;101941.03;13093256;22;20212;-80
2021/05/31 14:04:26;;;;;;;4.93;2.23;;;;;;;29.82;25.77;101897.09;13073222;22;20045;-80
2021/05/31 14:09:26;;;;;;;8.13;2.40;;;;;;;29.30;27.89;101890.63;13110307;22;20014;-78
2021/05/31 14:14:27;;;;;;;6.90;2.77;;;;;;;29.27;27.62;101881.19;13101590;22;20097;-78
2021/05/31 14:19:27;;;;;;;6.67;2.47;;;;;;;29.61;27.35;101906.38;13079993;22;20025;-82
2021/05/31 14:24:29;;;;;;;11.00;2.90;;;;;;;29.36;28.10;101894.34;13092537;22;20053;-81
2021/05/31 14:29:29;;;;;;;4.82;2.67;;;;;;;29.75;27.37;101897.41;13059333;22;20003;-80
2021/05/31 14:34:29;;;;;;;5.53;2.83;;;;;;;29.33;27.76;101873.00;13086912;22;20134;-82
2021/05/31 14:39:30;;;;;;;10.07;4.00;;;;;;;29.30;27.71;101896.19;13098654;22;20021;-82
2021/05/31 14:44:31;;;;;;;5.00;1.93;;;;;;;29.44;26.34;101839.84;13067582;22;20010;-82
2021/05/31 14:49:32;;;;;;;7.93;3.03;;;;;;;29.68;27.07;101853.13;13066705;22;20009;-80
2021/05/31 14:54:32;;;;;;;6.30;2.60;;;;;;;28.82;27.74;101798.47;13097267;22;20083;-78
2021/05/31 14:59:33;;;;;;;5.27;2.20;;;;;;;29.16;28.11;101835.56;13066392;22;20007;-78
2021/05/31 15:04:34;;;;;;;6.43;2.37;;;;;;;28.93;28.25;101868.34;13070580;22;20132;-79
2021/05/31 15:09:34;;;;;;;5.07;2.10;;;;;;;28.80;28.31;101870.50;13044562;22;20417;-78
2021/05/31 15:14:39;;;;;;;6.67;3.17;;;;;;;28.84;27.54;101854.41;13097106;22;20223;-78
2021/05/31 15:19:41;;;;;;;5.95;2.72;;;;;;;28.74;27.60;101852.84;13096357;22;20030;-78
2021/05/31 15:24:42;;;;;;;6.18;3.42;;;;;;;28.71;28.25;101851.00;13108196;22;20154;-81
2021/05/31 15:29:43;;;;;;;5.57;2.30;;;;;;;28.52;29.29;101828.72;13102603;22;20417;-79
2021/05/31 15:34:43;;;;;;;6.80;2.50;;;;;;;28.92;27.90;101833.38;13102659;22;20002;-80
2021/05/31 15:39:44;;;;;;;7.30;2.53;;;;;;;28.55;28.33;101822.25;13072932;22;20079;-79
2021/05/31 15:44:44;;;;;;;8.37;2.57;;;;;;;28.44;28.82;101816.31;13101879;22;20042;-79
2021/05/31 15:49:45;;;;;;;5.20;2.37;;;;;;;28.54;29.49;101815.13;13037743;22;20114;-81
2021/05/31 15:54:45;;;;;;;7.50;3.27;;;;;;;28.40;30.34;101810.13;13092905;22;20038;-80
2021/05/31 15:59:46;;;;;;;5.47;2.37;;;;;;;28.02;28.63;101764.78;13044377;22;20080;-80
2021/05/31 16:04:51;;;;;;;5.83;3.03;;;;;;;28.37;27.90;101799.94;13039656;22;20046;-78
2021/05/31 16:09:52;;;;;;;7.20;2.80;;;;;;;28.44;28.92;101805.19;13095939;22;20026;-79
2021/05/31 16:14:53;;;;;;;5.57;2.83;;;;;;;28.86;28.20;101790.72;13068030;22;20011;-78
2021/05/31 16:19:53;;;;;;;6.77;2.70;;;;;;;28.61;29.63;101787.00;13070708;22;20028;-77
2021/05/31 16:25:12;;;;;;;4.93;2.60;;;;;;;28.27;29.17;101753.88;13095452;22;20105;-78
2021/05/31 16:30:14;;;;;;;8.98;2.75;;;;;;;27.85;30.92;101765.53;13094653;22;20288;-76
2021/05/31 16:35:14;;;;;;;6.63;2.80;;;;;;;27.49;31.76;101761.31;13097804;22;20018;-77
2021/05/31 16:40:15;;;;;;;7.70;3.13;;;;;;;27.60;31.65;101758.91;13100155;22;20589;-78
2021/05/31 16:45:16;;;;;;;5.63;2.67;;;;;;;27.94;31.51;101784.97;13068503;22;20006;-78
2021/05/31 16:50:17;;;;;;;5.90;2.70;;;;;;;27.44;31.89;101786.88;13098017;22;20003;-77
2021/05/31 16:55:17;;;;;;;7.27;3.10;;;;;;;27.40;32.01;101768.38;13096671;22;20010;-78
2021/05/31 17:00:19;;;;;;;7.17;3.10;;;;;;;27.33;32.33;101765.88;13095702;22;20100;-78
2021/05/31 17:05:22;;;;;;;6.00;2.75;;;;;;;27.23;32.67;101761.47;13098294;22;20011;-81
2021/05/31 17:15:46;;;;;;;4.35;2.60;;;;;;;26.70;32.85;101730.88;13041166;22;20086;-79
2021/05/31 17:20:53;;;;;;;6.90;3.25;;;;;;;27.02;31.79;101740.03;13087937;22;20310;-76
2021/05/31 17:25:53;;;;;;;14.77;3.63;;;;;;;26.46;33.29;101745.13;13090647;22;20013;-77
2021/05/31 17:31:23;;;;;;;7.80;3.00;;;;;;;26.39;33.53;101762.00;13088788;22;20017;-80
2021/05/31 17:36:23;;;;;;;8.38;2.95;;;;;;;26.02;33.91;101717.28;13086011;22;20023;-80
2021/05/31 17:41:24;;;;;;;7.57;3.28;;;;;;;26.24;34.28;101760.91;13093378;22;20007;-78
2021/05/31 17:46:24;;;;;;;7.18;3.10;;;;;;;25.89;33.64;101756.09;13103058;22;20381;-77
2021/05/31 17:51:25;;;;;;;8.15;3.33;;;;;;;25.67;34.28;101742.09;13093051;22;20013;-79
2021/05/31 17:56:26;;;;;;;5.40;3.38;;;;;;;25.78;34.19;101768.69;13090451;22;20014;-79
2021/05/31 18:01:26;;;;;;;7.88;3.10;;;;;;;25.71;34.92;101767.69;13065193;22;20023;-78
2021/05/31 18:06:28;;;;;;;8.90;3.83;;;;;;;25.51;35.27;101772.63;13063861;22;20027;-78
2021/05/31 18:11:28;;;;;;;4.72;3.00;;;;;;;25.26;35.03;101735.41;13095073;22;20011;-79
2021/05/31 18:16:29;;;;;;;4.95;2.63;;;;;;;25.25;35.43;101772.56;13100025;22;20007;-80
2021/05/31 18:21:29;;;;;;;7.63;2.80;;;;;;;24.92;36.00;101754.53;13064917;22;20029;-80
2021/05/31 18:26:35;;;;;;;6.65;3.17;;;;;;;24.81;36.30;101763.09;13059285;22;20014;-81
2021/05/31 18:31:40;;;;;;;7.68;3.28;;;;;;;24.47;36.53;101731.97;13091474;22;20017;-79
2021/05/31 18:36:44;;;;;;;4.63;3.17;;;;;;;24.32;37.05;101744.59;13064484;22;20082;-79
2021/05/31 18:41:44;;;;;;;5.28;3.80;;;;;;;24.39;37.77;101777.56;13037961;22;20003;-79
2021/05/31 18:46:46;;;;;;;10.15;3.88;;;;;;;24.21;38.19;101763.41;13033488;22;20014;-77
2021/05/31 18:51:47;;;;;;;8.02;3.45;;;;;;;23.76;38.77;101733.69;13091313;22;20071;-77
2021/05/31 18:56:48;;;;;;;7.00;3.35;;;;;;;23.84;39.25;101773.72;13085692;22;20421;-78
2021/05/31 19:01:49;;;;;;;6.65;3.70;;;;;;;23.68;39.57;101770.91;13085746;22;20674;-78
2021/05/31 19:06:49;;;;;;;7.10;3.63;;;;;;;23.55;40.38;101779.84;13060023;22;20101;-77
2021/05/31 19:11:50;;;;;;;5.85;3.38;;;;;;;23.06;40.79;101732.75;13094272;22;20041;-78
2021/05/31 19:16:50;;;;;;;6.95;3.38;;;;;;;23.25;41.78;101780.06;13063820;22;20514;-80
2021/05/31 19:21:51;;;;;;;6.40;3.67;;;;;;;22.71;41.79;101729.44;13091490;22;20421;-78
2021/05/31 19:26:53;;;;;;;6.63;4.05;;;;;;;22.85;42.07;101771.72;13065948;22;20087;-77
2021/05/31 19:31:53;;;;;;;6.72;3.50;;;;;;;22.71;42.62;101784.56;13033035;22;20003;-80
2021/05/31 19:36:55;;;;;;;8.75;3.83;;;;;;;22.56;43.11;101783.25;13056904;22;20336;-79
2021/05/31 19:41:56;;;;;;;9.18;3.60;;;;;;;22.24;43.72;101757.00;13084093;22;20006;-79
2021/05/31 19:46:56;;;;;;;8.43;3.58;;;;;;;21.95;43.27;101746.41;13083606;22;20015;-77
2021/05/31 19:51:57;;;;;;;6.13;3.17;;;;;;;21.90;44.09;101771.66;13085945;22;19998;-78
2021/05/31 20:02:31;;;;;;;11.38;4.25;;;;;;;21.49;44.03;101758.81;13007796;22;20038;-79
2021/05/31 20:07:32;;;;;;;9.45;4.28;;;;;;;21.58;44.24;101798.81;13026747;22;20018;-78
2021/05/31 20:12:33;;;;;;;7.60;4.00;;;;;;;21.40;44.71;101799.81;13088688;22;20015;-80
2021/05/31 20:17:34;;;;;;;5.50;4.00;;;;;;;21.31;44.80;101794.00;13037704;22;20081;-81
2021/05/31 20:22:35;;;;;;;8.00;3.35;;;;;;;21.16;45.52;101795.31;13090025;22;20430;-80
2021/05/31 20:27:37;;;;;;;8.82;3.67;;;;;;;20.99;46.08;101797.84;13061393;22;20036;-79
2021/05/31 20:32:37;;;;;;;5.47;3.80;;;;;;;20.87;46.09;101801.13;13060844;22;20078;-81
2021/05/31 20:37:38;;;;;;;7.13;3.15;;;;;;;20.05;46.53;101689.97;13088897;22;20078;-80
2021/05/31 20:42:38;;;;;;;6.97;3.60;;;;;;;20.48;47.54;101785.72;13063867;22;20295;-81
2021/05/31 20:47:40;;;;;;;6.25;3.63;;;;;;;20.18;47.37;101756.94;13065426;22;20274;-80
2021/05/31 20:52:40;;;;;;;5.93;3.58;;;;;;;19.96;48.24;101750.00;13088907;22;20440;-81
2021/05/31 20:57:42;;;;;;;8.85;4.05;;;;;;;20.15;48.88;101801.63;13059744;22;20015;-82
2021/05/31 21:02:43;;;;;;;6.22;3.33;;;;;;;20.05;49.64;101810.72;13097029;22;20583;-81
2021/05/31 21:07:52;;;;;;;6.43;3.42;;;;;;;19.84;49.42;101804.16;13099032;22;20093;-82
2021/05/31 21:12:56;;;;;;;10.00;3.47;;;;;;;19.43;50.18;101758.09;13068978;22;20620;-81
2021/05/31 21:17:57;;;;;;;10.27;3.65;;;;;;;19.57;50.63;101800.34;13060813;22;20430;-81
2021/05/31 21:22:58;;;;;;;5.72;3.92;;;;;;;19.47;51.64;101812.13;13071397;22;20011;-81
2021/05/31 21:27:59;;;;;;;8.68;3.63;;;;;;;19.28;52.17;101800.41;13103710;22;20003;-79
2021/05/31 21:32:59;;;;;;;6.53;3.58;;;;;;;18.98;52.82;101760.56;13068164;22;20144;-81
2021/05/31 21:38:00;;;;;;;8.27;4.07;;;;;;;19.18;53.16;101814.94;13095713;22;20502;-80
2021/05/31 21:43:00;;;;;;;5.80;3.67;;;;;;;19.03;53.64;101799.72;13096292;22;20010;-82
2021/05/31 21:48:01;;;;;;;11.75;4.43;;;;;;;18.99;54.07;101805.19;13091019;22;20113;-79
2021/05/31 21:53:02;;;;;;;8.07;4.43;;;;;;;18.82;54.72;101801.31;13074677;22;20021;-81
2021/05/31 21:58:03;;;;;;;7.87;4.50;;;;;;;18.77;54.92;101801.69;13073393;22;20026;-84
2021/05/31 22:03:06;;;;;;;8.00;4.10;;;;;;;18.72;54.73;101804.78;13065682;22;20378;-83
2021/05/31 22:08:07;;;;;;;9.32;4.40;;;;;;;18.66;55.30;101792.66;13045257;22;20090;-84
2021/05/31 22:13:14;;;;;;;8.23;4.00;;;;;;;18.49;55.25;101775.84;13071670;22;20041;-83
2021/05/31 22:18:14;;;;;;;7.47;4.50;;;;;;;18.55;55.44;101804.38;13099451;22;20006;-82
2021/05/31 22:23:27;;;;;;;8.15;4.68;;;;;;;18.51;55.91;101803.63;13101980;22;20022;-83
2021/05/31 22:33:54;;;;;;;8.05;4.78;;;;;;;18.39;56.12;101801.28;13099757;22;20027;-83
2021/05/31 22:39:10;;;;;;;7.57;4.80;;;;;;;18.27;55.94;101782.47;13073269;22;20034;-81
2021/05/31 23:16:26;;;;;;;8.40;4.18;;;;;;;17.73;55.85;101755.75;13105346;22;20131;-82
2021/05/31 23:21:28;;;;;;;9.55;4.70;;;;;;;17.57;55.67;101744.38;13100082;22;20048;-82
2021/05/31 23:26:29;;;;;;;7.70;4.63;;;;;;;17.66;56.06;101766.69;13100104;22;20011;-81
2021/05/31 23:31:29;;;;;;;6.00;4.00;;;;;;;17.69;56.00;101782.31;13071696;22;19999;-82
2021/05/31 23:36:30;;;;;;;7.57;3.88;;;;;;;17.46;56.09;101758.00;13044038;22;20329;-83
2021/05/31 23:41:31;;;;;;;8.15;4.18;;;;;;;17.03;56.80;101696.91;13098334;22;20011;-82
2021/05/31 23:46:31;;;;;;;9.73;4.60;;;;;;;17.38;56.81;101777.47;13069848;22;20011;-81
2021/05/31 23:51:35;;;;;;;7.47;4.30;;;;;;;17.32;56.79;101774.31;13102019;22;20029;-82
2021/05/31 23:56:37;;;;;;;7.25;4.35;;;;;;;17.23;57.94;101766.47;13075421;22;20352;-81
